Time;durP1;ratioP1;P1;durP2;ratioP2;P2;SDS_P1;SDS_P2;PMS_P1;PMS_P2;Temp;Humidity;BMP_temperature;BMP_pressure;BME280_temperature;BME280_humidity;BME280_pressure;Samples;Min_cycle;Max_cycle;Signal;HPM_P1;HPM_P2
2021/10/25 00:01:31;;;;;;;11.02;5.68;;;;;;;1.46;100.00;99667.13;5072427;28;20053;-80
2021/10/25 00:03:59;;;;;;;7.57;5.68;;;;;;;1.40;100.00;99659.50;5071427;28;20059;-81
2021/10/25 00:06:29;;;;;;;8.10;4.75;;;;;;;1.43;100.00;99659.31;5071664;28;20466;-81
2021/10/25 00:08:56;;;;;;;9.35;5.15;;;;;;;1.31;100.00;99647.69;5069461;28;20550;-80
2021/10/25 00:11:28;;;;;;;9.18;5.28;;;;;;;1.42;100.00;99642.34;5059980;28;20400;-80
2021/10/25 00:13:55;;;;;;;7.38;4.63;;;;;;;1.47;100.00;99650.06;5061555;28;20074;-80
2021/10/25 00:16:22;;;;;;;8.18;5.35;;;;;;;1.34;100.00;99639.41;5059823;28;20057;-80
2021/10/25 00:18:51;;;;;;;7.22;5.03;;;;;;;1.23;100.00;99620.59;5067844;28;20079;-81
2021/10/25 00:21:18;;;;;;;7.30;5.22;;;;;;;1.32;100.00;99641.34;5066052;28;20044;-80
2021/10/25 00:23:45;;;;;;;8.43;5.40;;;;;;;1.33;100.00;99655.59;5071926;28;20053;-80
2021/10/25 00:26:15;;;;;;;6.95;5.22;;;;;;;1.20;100.00;99635.06;5070400;28;20044;-80
2021/10/25 00:28:42;;;;;;;8.80;5.20;;;;;;;1.31;100.00;99649.47;5071491;28;20095;-80
2021/10/25 00:31:08;;;;;;;7.82;5.38;;;;;;;1.12;100.00;99639.28;5071371;28;20553;-80
2021/10/25 00:33:35;;;;;;;9.48;6.00;;;;;;;1.15;100.00;99653.31;5071259;28;20048;-80
2021/10/25 00:36:04;;;;;;;8.95;6.13;;;;;;;1.09;100.00;99655.59;5071147;28;20389;-80
2021/10/25 00:38:31;;;;;;;8.98;5.40;;;;;;;1.11;100.00;99662.53;5070656;28;20547;-79
2021/10/25 00:40:58;;;;;;;7.93;5.22;;;;;;;0.98;100.00;99659.03;5070390;28;20136;-80
2021/10/25 00:43:25;;;;;;;9.13;5.25;;;;;;;1.06;100.00;99668.22;5059317;28;20056;-80
2021/10/25 00:45:51;;;;;;;9.05;5.57;;;;;;;1.06;100.00;99675.41;5070640;28;20554;-80
2021/10/25 00:48:18;;;;;;;8.13;5.38;;;;;;;1.13;100.00;99665.09;5070727;28;20040;-79
2021/10/25 00:51:09;;;;;;;7.05;5.18;;;;;;;1.01;100.00;99645.41;5070509;28;20044;-80
2021/10/25 00:53:36;;;;;;;10.32;5.20;;;;;;;0.86;100.00;99642.91;5065609;28;20045;-81
2021/10/25 00:56:06;;;;;;;6.72;5.30;;;;;;;0.87;100.00;99662.47;5067231;28;20047;-80
2021/10/25 00:58:34;;;;;;;6.05;4.53;;;;;;;0.79;100.00;99660.38;5070832;28;20520;-80
2021/10/25 01:01:00;;;;;;;9.00;5.32;;;;;;;0.70;100.00;99647.66;5071960;28;20045;-80
2021/10/25 01:03:28;;;;;;;8.60;5.15;;;;;;;0.70;100.00;99637.78;5072998;28;20094;-80
2021/10/25 01:05:55;;;;;;;7.15;5.00;;;;;;;0.78;100.00;99653.28;5073134;28;20044;-80
2021/10/25 01:08:24;;;;;;;9.30;5.00;;;;;;;0.80;100.00;99639.78;5073004;28;20094;-80
2021/10/25 01:10:51;;;;;;;8.48;6.03;;;;;;;0.92;100.00;99654.13;5073313;28;20131;-80
2021/10/25 01:13:18;;;;;;;7.00;5.10;;;;;;;0.83;100.00;99642.28;5072441;28;20130;-80
2021/10/25 01:15:45;;;;;;;9.70;5.03;;;;;;;0.84;100.00;99646.66;5071429;28;20072;-81
2021/10/25 01:18:12;;;;;;;8.05;4.50;;;;;;;0.66;100.00;99636.31;5071335;28;20052;-81
2021/10/25 01:20:41;;;;;;;7.28;4.53;;;;;;;0.67;100.00;99646.03;5073133;28;20068;-80
2021/10/25 01:23:07;;;;;;;7.88;5.30;;;;;;;0.70;100.00;99644.97;5072845;28;20135;-80
2021/10/25 01:25:35;;;;;;;6.47;4.90;;;;;;;0.63;100.00;99636.53;5074886;28;20129;-81
2021/10/25 01:28:02;;;;;;;5.68;4.53;;;;;;;0.75;100.00;99650.00;5076452;28;20537;-80
2021/10/25 01:30:29;;;;;;;6.60;5.03;;;;;;;0.69;100.00;99645.94;5076352;28;20496;-80
2021/10/25 01:32:56;;;;;;;8.18;4.88;;;;;;;0.69;100.00;99644.13;5076528;28;20044;-80
2021/10/25 01:35:23;;;;;;;15.18;5.32;;;;;;;0.56;100.00;99637.94;5076610;28;20102;-79
2021/10/25 01:37:51;;;;;;;9.70;5.80;;;;;;;0.61;100.00;99645.63;5076069;28;20048;-80
2021/10/25 01:40:18;;;;;;;9.43;5.22;;;;;;;0.41;100.00;99615.81;5076684;28;20495;-80
2021/10/25 01:42:45;;;;;;;9.65;5.97;;;;;;;0.57;100.00;99628.94;5076583;28;20139;-80
2021/10/25 01:45:13;;;;;;;11.60;5.55;;;;;;;0.59;100.00;99628.81;5075881;28;20472;-80
2021/10/25 01:47:40;;;;;;;8.05;5.68;;;;;;;0.69;100.00;99629.88;5076235;28;20396;-80
2021/10/25 01:50:08;;;;;;;7.60;5.70;;;;;;;0.65;100.00;99623.06;5076713;28;20048;-80
2021/10/25 01:52:34;;;;;;;9.60;6.00;;;;;;;0.71;100.00;99625.28;5076130;28;20052;-80
2021/10/25 01:55:03;;;;;;;6.90;5.28;;;;;;;0.75;100.00;99623.22;5076058;28;20045;-80
2021/10/25 01:57:30;;;;;;;10.43;5.77;;;;;;;0.67;100.00;99627.31;5076317;28;20123;-81
2021/10/25 01:59:57;;;;;;;9.88;5.57;;;;;;;0.63;100.00;99631.19;5075934;28;20110;-80
2021/10/25 02:02:24;;;;;;;9.67;5.77;;;;;;;0.67;100.00;99632.66;5057749;28;20124;-80
2021/10/25 02:04:51;;;;;;;12.68;5.72;;;;;;;0.69;100.00;99624.50;5055619;28;20045;-79
2021/10/25 02:07:18;;;;;;;16.10;6.65;;;;;;;0.68;100.00;99620.16;5070826;28;20045;-80
2021/10/25 02:09:44;;;;;;;10.73;6.20;;;;;;;0.61;100.00;99617.03;5076036;28;20052;-81
2021/10/25 02:12:13;;;;;;;11.65;6.45;;;;;;;0.55;100.00;99627.34;5075856;28;20480;-80
2021/10/25 02:14:40;;;;;;;10.13;6.15;;;;;;;0.29;100.00;99606.81;5074525;28;20532;-80
2021/10/25 02:17:06;;;;;;;10.18;5.85;;;;;;;0.40;100.00;99622.09;5075819;28;20097;-81
2021/10/25 02:19:33;;;;;;;10.15;6.10;;;;;;;0.49;100.00;99621.44;5075731;28;20114;-80
2021/10/25 02:22:01;;;;;;;18.20;5.97;;;;;;;0.42;100.00;99609.50;5076274;28;20076;-80
2021/10/25 02:24:28;;;;;;;9.20;5.80;;;;;;;0.37;100.00;99608.94;5075427;28;20044;-80
2021/10/25 02:26:55;;;;;;;7.93;5.43;;;;;;;0.37;100.00;99611.63;5075640;28;20143;-80
2021/10/25 02:29:23;;;;;;;8.43;5.20;;;;;;;0.40;100.00;99608.75;5075908;28;20106;-80
2021/10/25 02:31:50;;;;;;;9.07;6.03;;;;;;;0.34;100.00;99618.03;5075791;28;20048;-80
2021/10/25 02:34:17;;;;;;;6.97;5.13;;;;;;;0.37;100.00;99616.13;5070442;28;20126;-80
2021/10/25 02:36:44;;;;;;;8.23;5.07;;;;;;;0.18;100.00;99601.38;5054466;28;20056;-80
2021/10/25 02:39:11;;;;;;;10.50;4.80;;;;;;;0.19;100.00;99605.75;5055630;28;20102;-79
2021/10/25 02:41:38;;;;;;;9.33;6.13;;;;;;;0.41;100.00;99609.63;5055152;28;20420;-80
2021/10/25 02:44:05;;;;;;;7.80;5.80;;;;;;;0.33;100.00;99600.31;5064900;28;20109;-80
2021/10/25 02:46:34;;;;;;;8.75;5.28;;;;;;;0.17;100.00;99588.97;5074786;28;20091;-80
2021/10/25 02:49:00;;;;;;;7.50;5.75;;;;;;;0.15;100.00;99585.53;5075197;28;20573;-81
2021/10/25 02:51:27;;;;;;;8.90;5.43;;;;;;;0.14;100.00;99594.53;5075369;28;20052;-80
2021/10/25 02:53:54;;;;;;;8.38;5.50;;;;;;;0.07;100.00;99591.44;5075237;28;20048;-81
2021/10/25 02:56:21;;;;;;;11.00;4.87;;;;;;;0.04;100.00;99590.81;5063540;28;20099;-80
2021/10/25 02:58:48;;;;;;;9.57;5.77;;;;;;;-0.05;100.00;99558.38;5055183;28;20045;-79
2021/10/25 03:01:15;;;;;;;8.50;5.50;;;;;;;0.19;100.00;99586.19;5065748;28;20555;-79
2021/10/25 03:03:43;;;;;;;8.52;5.22;;;;;;;0.13;100.00;99585.66;5074924;28;20048;-80
2021/10/25 03:06:10;;;;;;;8.70;5.43;;;;;;;0.09;100.00;99583.31;5074674;28;20049;-80
2021/10/25 03:08:38;;;;;;;8.52;5.30;;;;;;;0.13;100.00;99591.00;5074631;28;20051;-80
2021/10/25 03:11:05;;;;;;;11.70;5.88;;;;;;;0.29;100.00;99601.47;5074847;28;20052;-80
2021/10/25 03:13:32;;;;;;;8.47;5.90;;;;;;;0.28;100.00;99590.91;5073838;28;20412;-80
2021/10/25 03:15:58;;;;;;;11.30;5.95;;;;;;;0.26;100.00;99593.69;5072865;28;20407;-79
2021/10/25 03:18:25;;;;;;;9.10;5.97;;;;;;;0.12;100.00;99585.75;5074395;28;20687;-79
2021/10/25 03:20:53;;;;;;;10.75;5.75;;;;;;;0.14;100.00;99599.91;5074713;28;20056;-79
2021/10/25 03:23:23;;;;;;;7.85;6.18;;;;;;;-0.01;100.00;99583.94;5074659;28;20102;-80
2021/10/25 03:25:50;;;;;;;9.20;5.68;;;;;;;0.05;100.00;99603.22;5074601;28;20049;-80
2021/10/25 03:28:17;;;;;;;7.30;5.30;;;;;;;-0.11;100.00;99582.88;5074223;28;20044;-80
2021/10/25 03:30:45;;;;;;;9.83;5.57;;;;;;;-0.02;100.00;99600.94;5074456;28;20056;-84
2021/10/25 03:33:12;;;;;;;14.32;6.30;;;;;;;-0.04;100.00;99573.47;5074783;28;20040;-81
2021/10/25 03:35:39;;;;;;;14.47;6.33;;;;;;;-0.02;100.00;99573.38;5074120;28;20052;-80
2021/10/25 03:38:09;;;;;;;10.77;5.95;;;;;;;-0.01;100.00;99593.81;5073755;28;20060;-81
2021/10/25 03:40:38;;;;;;;10.50;6.63;;;;;;;0.12;100.00;99593.78;5074169;28;20060;-81
2021/10/25 03:43:04;;;;;;;7.57;5.40;;;;;;;-0.13;100.00;99582.13;5074243;28;20048;-81
2021/10/25 03:45:34;;;;;;;9.13;6.27;;;;;;;-0.08;100.00;99589.84;5073793;28;20113;-81
2021/10/25 03:48:07;;;;;;;9.07;5.87;;;;;;;-0.11;100.00;99584.69;5073232;28;20514;-81
2021/10/25 03:50:36;;;;;;;9.15;5.38;;;;;;;-0.08;100.00;99584.50;5073994;28;20060;-81
2021/10/25 03:53:08;;;;;;;7.47;5.78;;;;;;;-0.20;100.00;99584.41;5074282;28;20419;-82
2021/10/25 03:55:40;;;;;;;9.03;5.60;;;;;;;-0.25;100.00;99580.31;5074024;28;20052;-81
2021/10/25 04:28:45;;;;;;;7.72;5.63;;;;;;;-0.32;100.00;99584.38;5062704;28;20182;-83
2021/10/25 04:31:12;;;;;;;8.13;5.37;;;;;;;-0.32;100.00;99587.03;5073115;28;20044;-83
2021/10/25 04:33:38;;;;;;;11.00;6.53;;;;;;;-0.31;100.00;99578.06;5073507;28;20052;-83
2021/10/25 04:36:05;;;;;;;9.97;6.30;;;;;;;-0.28;100.00;99588.56;5072823;28;20420;-83
2021/10/25 04:38:32;;;;;;;11.23;6.50;;;;;;;-0.26;100.00;99571.44;5057600;28;20106;-82
2021/10/25 04:40:59;;;;;;;9.83;6.03;;;;;;;-0.23;100.00;99589.06;5053364;28;20045;-83
2021/10/25 04:43:25;;;;;;;8.67;5.87;;;;;;;-0.32;100.00;99589.72;5067892;28;20150;-82
2021/10/25 04:45:54;;;;;;;8.33;5.50;;;;;;;-0.43;100.00;99585.13;5071509;28;20514;-83
2021/10/25 04:48:20;;;;;;;13.47;6.17;;;;;;;-0.42;100.00;99576.13;5071034;28;20044;-83
2021/10/25 04:50:47;;;;;;;12.57;5.87;;;;;;;-0.29;100.00;99592.19;5071892;28;20101;-82
2021/10/25 04:53:14;;;;;;;13.20;8.57;;;;;;;-0.39;100.00;99589.28;5070245;28;20454;-82
2021/10/25 04:55:41;;;;;;;12.53;7.10;;;;;;;-0.38;100.00;99585.63;5071520;28;20491;-82
2021/10/25 04:58:08;;;;;;;11.83;6.80;;;;;;;-0.38;100.00;99586.50;5073091;28;20049;-83
2021/10/25 05:00:37;;;;;;;9.80;5.83;;;;;;;-0.40;100.00;99585.75;5077642;28;20048;-82
2021/10/25 05:03:06;;;;;;;12.88;6.05;;;;;;;-0.44;100.00;99586.06;5077580;28;20056;-83
2021/10/25 05:05:33;;;;;;;10.77;6.50;;;;;;;-0.43;100.00;99588.63;5076939;28;20052;-82
2021/10/25 05:08:00;;;;;;;11.63;6.00;;;;;;;-0.42;100.00;99578.78;5077314;28;20095;-82
2021/10/25 05:10:27;;;;;;;10.10;5.63;;;;;;;-0.32;100.00;99595.06;5077233;28;20500;-82
2021/10/25 05:12:53;;;;;;;13.63;6.30;;;;;;;-0.38;100.00;99583.84;5077175;28;20048;-83
2021/10/25 05:15:27;;;;;;;8.73;5.93;;;;;;;-0.29;100.00;99582.31;5075079;28;20098;-83
2021/10/25 05:17:53;;;;;;;12.37;6.53;;;;;;;-0.38;100.00;99589.19;5059513;28;20052;-82
2021/10/25 05:20:25;;;;;;;11.57;6.57;;;;;;;-0.39;100.00;99590.13;5075417;28;20045;-82
2021/10/25 05:22:52;;;;;;;9.83;6.83;;;;;;;-0.41;100.00;99586.69;5076829;28;20052;-82
2021/10/25 05:25:19;;;;;;;13.47;6.93;;;;;;;-0.47;100.00;99572.91;5076774;28;20057;-82
2021/10/25 05:27:46;;;;;;;9.77;5.93;;;;;;;-0.53;100.00;99579.53;5076600;28;20051;-81
2021/10/25 05:30:12;;;;;;;8.87;5.57;;;;;;;-0.46;100.00;99593.34;5076596;28;20044;-82
2021/10/25 05:32:39;;;;;;;10.37;6.50;;;;;;;-0.58;100.00;99576.31;5076670;28;20098;-83
2021/10/25 05:35:06;;;;;;;12.13;6.10;;;;;;;-0.45;100.00;99600.38;5076585;28;20048;-83
2021/10/25 05:37:38;;;;;;;8.07;5.97;;;;;;;-0.45;100.00;99593.22;5076119;28;20106;-83
2021/10/25 05:40:06;;;;;;;10.47;6.53;;;;;;;-0.41;100.00;99584.03;5071155;28;20135;-83
2021/10/25 05:42:33;;;;;;;12.00;7.30;;;;;;;-0.38;100.00;99574.94;5076312;28;20052;-82
2021/10/25 05:45:01;;;;;;;10.27;6.27;;;;;;;-0.37;100.00;99574.84;5075337;28;20052;-82
2021/10/25 05:47:28;;;;;;;12.10;5.60;;;;;;;-0.39;100.00;99565.25;5056248;28;20056;-83
2021/10/25 05:49:54;;;;;;;11.70;6.17;;;;;;;-0.49;100.00;99554.31;5073972;28;20469;-82
2021/10/25 05:52:21;;;;;;;9.20;6.17;;;;;;;-0.32;100.00;99579.03;5076273;28;20102;-83
2021/10/25 05:55:23;;;;;;;8.23;5.83;;;;;;;-0.45;100.00;99552.28;5075804;28;20056;-83
2021/10/25 05:58:02;;;;;;;8.97;6.47;;;;;;;-0.40;100.00;99545.66;5056066;28;20052;-83
2021/10/25 06:00:37;;;;;;;8.88;5.80;;;;;;;-0.44;100.00;99562.03;5057592;28;20041;-83
2021/10/25 06:03:04;;;;;;;13.13;7.13;;;;;;;-0.58;100.00;99558.47;5076087;28;20048;-83
2021/10/25 06:05:37;;;;;;;12.00;6.93;;;;;;;-0.53;100.00;99563.50;5075663;28;20056;-82
2021/10/25 06:08:09;;;;;;;11.07;7.03;;;;;;;-0.56;100.00;99558.38;5076018;28;20114;-83
2021/10/25 06:10:49;;;;;;;11.60;7.37;;;;;;;-0.39;100.00;99586.63;5074774;28;20454;-83
2021/10/25 06:16:14;;;;;;;12.50;6.60;;;;;;;-0.39;100.00;99571.44;5071240;28;19927;-83
2021/10/25 06:18:59;;;;;;;14.07;7.00;;;;;;;-0.51;100.00;99572.28;5067749;28;20084;-83
2021/10/25 06:21:36;;;;;;;13.07;6.77;;;;;;;-0.39;100.00;99578.59;5055301;28;20049;-83
2021/10/25 06:24:40;;;;;;;10.20;6.57;;;;;;;-0.35;100.00;99585.44;5065044;28;20080;-83
2021/10/25 06:27:29;;;;;;;8.27;5.33;;;;;;;-0.37;100.00;99582.00;5071718;28;20413;-83
2021/10/25 06:29:56;;;;;;;11.52;6.22;;;;;;;-0.34;100.00;99588.97;5070797;28;20040;-83
2021/10/25 06:32:58;;;;;;;9.23;6.03;;;;;;;-0.28;100.00;99584.06;5075097;28;20060;-84
2021/10/25 06:38:52;;;;;;;15.13;7.27;;;;;;;-0.27;100.00;99582.22;5013625;28;20050;-83
2021/10/25 06:44:49;;;;;;;12.90;7.50;;;;;;;-0.14;100.00;99600.97;5047678;28;20057;-83
2021/10/25 06:47:17;;;;;;;11.47;6.67;;;;;;;-0.09;100.00;99597.00;5054562;28;20102;-83
2021/10/25 06:49:43;;;;;;;8.77;6.40;;;;;;;-0.14;100.00;99601.78;5072056;28;20044;-84
2021/10/25 06:52:10;;;;;;;12.03;6.87;;;;;;;-0.02;100.00;99595.59;5075179;28;20044;-83
2021/10/25 06:54:45;;;;;;;11.70;6.93;;;;;;;-0.01;100.00;99607.16;5074705;28;20476;-83
2021/10/25 06:57:13;;;;;;;11.67;6.97;;;;;;;-0.07;100.00;99612.94;5074749;28;20052;-83
2021/10/25 06:59:41;;;;;;;8.70;6.40;;;;;;;-0.07;100.00;99618.28;5067635;28;20045;-83
2021/10/25 07:02:34;;;;;;;10.23;6.57;;;;;;;-0.08;100.00;99612.06;5064911;28;20404;-83
2021/10/25 07:11:24;;;;;;;11.50;6.77;;;;;;;0.12;100.00;99621.38;5012753;28;20136;-83
2021/10/25 07:13:53;;;;;;;13.80;7.10;;;;;;;0.16;100.00;99614.00;5010469;28;20050;-83
2021/10/25 07:16:36;;;;;;;10.82;6.95;;;;;;;0.31;100.00;99628.13;5058435;28;20135;-83
2021/10/25 07:19:28;;;;;;;11.90;6.63;;;;;;;0.32;100.00;99619.97;5074678;28;20438;-83
2021/10/25 08:11:33;;;;;;;20.35;11.02;;;;;;;2.52;100.00;99574.91;5055713;28;20094;-84
2021/10/25 08:14:08;;;;;;;20.85;10.35;;;;;;;2.96;100.00;99596.44;5185440;22;20883;-84
2021/10/25 08:24:07;;;;;;;;;;;;;;;;;;;;;
2021/10/25 08:26:49;;;;;;;20.15;11.52;;;;;;;3.43;100.00;99566.59;4991756;28;20058;-85
2021/10/25 08:29:19;;;;;;;20.23;11.77;;;;;;;3.50;100.00;99565.13;5018671;28;20433;-85
2021/10/25 08:31:59;;;;;;;19.40;11.52;;;;;;;3.65;100.00;99550.38;5033137;28;20073;-85
2021/10/25 08:41:12;;;;;;;22.60;10.57;;;;;;;4.25;100.00;99560.47;5029094;28;20501;-85
2021/10/25 08:51:31;;;;;;;15.52;10.35;;;;;;;5.35;100.00;99550.69;4919381;29;20107;-85
2021/10/25 08:54:00;;;;;;;18.17;11.60;;;;;;;5.37;100.00;99529.81;4950687;29;20062;-85
2021/10/25 08:56:31;;;;;;;20.77;12.70;;;;;;;5.53;100.00;99548.97;5005209;28;20049;-84
2021/10/25 08:59:00;;;;;;;19.88;10.55;;;;;;;5.59;100.00;99525.97;5033422;28;20140;-85
2021/10/25 09:01:29;;;;;;;18.80;10.73;;;;;;;5.84;100.00;99549.63;5033812;28;20455;-85
2021/10/25 09:04:07;;;;;;;17.38;10.20;;;;;;;5.94;100.00;99549.59;5033308;28;20300;-85
2021/10/25 09:06:36;;;;;;;18.65;9.93;;;;;;;6.05;100.00;99564.78;5033326;28;20053;-85
2021/10/25 09:09:09;;;;;;;17.77;9.38;;;;;;;6.14;100.00;99557.66;5033614;28;20053;-85
2021/10/25 09:11:39;;;;;;;18.98;9.93;;;;;;;6.23;100.00;99531.63;5033935;28;20152;-85
2021/10/25 09:14:15;;;;;;;16.73;10.13;;;;;;;6.44;100.00;99548.47;5031830;28;20046;-86
2021/10/25 09:16:56;;;;;;;16.73;9.93;;;;;;;6.50;100.00;99547.88;5029875;28;20053;-85
2021/10/25 09:19:23;;;;;;;17.75;8.73;;;;;;;6.65;100.00;99541.97;5033353;28;20437;-85
2021/10/25 09:21:53;;;;;;;12.50;7.43;;;;;;;6.85;100.00;99540.88;5033610;28;20139;-85
2021/10/25 09:24:25;;;;;;;10.73;6.68;;;;;;;6.96;100.00;99538.97;5033030;28;20041;-85
2021/10/25 09:27:01;;;;;;;13.38;7.93;;;;;;;7.12;100.00;99544.53;5016092;28;20157;-85
2021/10/25 09:29:34;;;;;;;13.25;6.25;;;;;;;7.22;100.00;99544.44;5021979;28;20073;-85
2021/10/25 09:32:09;;;;;;;10.52;6.45;;;;;;;7.25;100.00;99526.06;5033434;28;20489;-85
2021/10/25 09:34:43;;;;;;;14.55;7.15;;;;;;;7.41;100.00;99521.81;5033061;28;20109;-85
2021/10/25 09:37:27;;;;;;;16.65;6.97;;;;;;;7.63;100.00;99539.41;5033404;28;20077;-85
2021/10/25 09:40:00;;;;;;;19.42;7.57;;;;;;;7.51;100.00;99508.19;5033577;28;20129;-85
2021/10/25 09:51:00;;;;;;;25.73;7.30;;;;;;;7.97;100.00;99512.41;5016862;28;20061;-85
2021/10/25 09:53:33;;;;;;;17.15;7.70;;;;;;;8.10;99.06;99512.00;5016990;28;20414;-85
2021/10/25 09:56:00;;;;;;;12.88;6.90;;;;;;;8.34;99.23;99537.53;5016386;28;20493;-85
2021/10/25 09:58:33;;;;;;;17.58;7.82;;;;;;;8.46;99.72;99532.66;5029741;28;20057;-85
2021/10/25 10:01:01;;;;;;;12.07;6.95;;;;;;;8.62;97.98;99513.78;5036447;28;20460;-84
2021/10/25 10:03:31;;;;;;;18.05;8.75;;;;;;;8.78;97.52;99502.16;5036256;28;20046;-85
2021/10/25 10:06:00;;;;;;;13.90;7.07;;;;;;;8.98;95.98;99518.13;5035863;28;20049;-85
2021/10/25 10:08:29;;;;;;;16.33;6.57;;;;;;;9.08;96.15;99517.97;5036272;28;20477;-85
2021/10/25 10:10:58;;;;;;;21.20;7.03;;;;;;;9.16;94.72;99515.28;5036080;28;20050;-84
2021/10/25 10:13:26;;;;;;;11.97;6.47;;;;;;;9.34;93.17;99526.81;5036136;28;20053;-85
2021/10/25 10:15:59;;;;;;;8.15;5.03;;;;;;;9.32;94.04;99501.72;5035401;28;20045;-85
2021/10/25 10:18:30;;;;;;;6.47;4.70;;;;;;;9.46;92.86;99508.34;5036067;28;20141;-84
2021/10/25 10:21:03;;;;;;;10.68;5.07;;;;;;;9.66;91.41;99508.00;5035935;28;20061;-84
2021/10/25 10:23:32;;;;;;;9.07;4.80;;;;;;;9.66;88.29;99499.88;5036140;28;20041;-85
2021/10/25 10:26:03;;;;;;;7.15;3.95;;;;;;;9.79;85.53;99502.06;5035639;28;20467;-84
2021/10/25 10:28:36;;;;;;;8.65;4.43;;;;;;;9.87;85.57;99491.19;5035699;28;20140;-84
2021/10/25 10:31:18;;;;;;;5.57;4.20;;;;;;;10.04;85.72;99503.72;5035809;28;20408;-84
2021/10/25 10:33:49;;;;;;;6.10;4.18;;;;;;;10.05;86.82;99489.09;5035654;28;20053;-84
2021/10/25 10:36:21;;;;;;;5.80;4.13;;;;;;;10.09;86.03;99487.75;5035378;28;20073;-84
2021/10/25 10:38:51;;;;;;;5.78;3.40;;;;;;;10.16;86.46;99492.47;5035567;28;20053;-85
2021/10/25 10:41:20;;;;;;;;;;;;;;;10.26;84.64;99496.69;5034582;28;20041;-84
2021/10/25 10:43:58;;;;;;;5.90;3.55;;;;;;;10.32;82.93;99483.44;5015899;28;19975;-84
2021/10/25 10:46:38;;;;;;;5.60;3.67;;;;;;;10.40;84.19;99480.69;5025096;28;20041;-84
2021/10/25 10:49:06;;;;;;;6.05;3.78;;;;;;;10.47;81.27;99470.81;5021969;28;20095;-84
2021/10/25 10:51:35;;;;;;;4.68;3.58;;;;;;;10.69;81.78;99492.81;5035324;28;20049;-84
2021/10/25 10:54:10;;;;;;;4.80;3.70;;;;;;;10.59;81.95;99463.97;5035488;28;20081;-84
2021/10/25 10:56:51;;;;;;;6.43;3.50;;;;;;;10.77;83.02;99476.47;5034837;28;20085;-83
2021/10/25 10:59:34;;;;;;;5.20;3.67;;;;;;;10.90;82.32;99482.16;5031678;28;20042;-84
2021/10/25 11:02:01;;;;;;;6.70;3.47;;;;;;;10.94;81.46;99479.91;5032667;28;20511;-84
2021/10/25 11:04:32;;;;;;;4.28;2.70;;;;;;;10.99;79.65;99488.41;5034814;28;20049;-84
2021/10/25 11:07:01;;;;;;;4.50;2.92;;;;;;;10.98;80.06;99483.97;5035216;28;20417;-84
2021/10/25 11:09:32;;;;;;;6.80;3.55;;;;;;;11.05;78.88;99478.66;5034790;28;20053;-84
2021/10/25 11:12:05;;;;;;;5.55;2.78;;;;;;;11.13;79.97;99482.16;5034590;28;20045;-83
2021/10/25 11:14:37;;;;;;;6.05;3.30;;;;;;;11.24;78.13;99471.91;5033977;28;20069;-84
2021/10/25 11:17:16;;;;;;;6.05;3.35;;;;;;;11.37;77.10;99477.59;5033054;28;20046;-84
2021/10/25 11:19:51;;;;;;;4.27;2.73;;;;;;;11.49;74.72;99483.44;5026802;28;20049;-84
2021/10/25 11:22:40;;;;;;;5.60;2.58;;;;;;;11.56;72.97;99478.97;5034405;28;20354;-84
2021/10/25 11:25:10;;;;;;;7.87;2.13;;;;;;;11.71;72.96;99475.41;5034784;28;20141;-84
2021/10/25 11:27:40;;;;;;;3.75;2.10;;;;;;;11.74;70.27;99462.25;5034836;28;20057;-84
2021/10/25 11:30:12;;;;;;;3.47;1.85;;;;;;;11.71;71.50;99459.91;5034520;28;20045;-84
2021/10/25 11:32:40;;;;;;;4.38;2.47;;;;;;;11.76;71.33;99449.31;5015106;28;20050;-84
2021/10/25 11:35:12;;;;;;;7.07;2.58;;;;;;;11.94;69.78;99454.44;5014512;28;20050;-84
2021/10/25 11:37:41;;;;;;;5.57;2.50;;;;;;;12.22;70.02;99456.50;5014526;28;20085;-84
2021/10/25 11:40:11;;;;;;;5.85;2.60;;;;;;;12.25;69.44;99450.69;5023081;28;20448;-84
2021/10/25 11:42:41;;;;;;;10.45;2.67;;;;;;;12.41;71.23;99454.25;5034465;28;20071;-84
2021/10/25 11:45:29;;;;;;;6.57;2.58;;;;;;;12.47;70.77;99453.50;5025275;28;20049;-84
2021/10/25 11:47:57;;;;;;;5.57;1.95;;;;;;;12.46;66.71;99449.91;5026202;28;20497;-84
2021/10/25 11:50:25;;;;;;;5.82;2.38;;;;;;;12.61;67.33;99443.59;5054396;28;20052;-84
2021/10/25 11:52:55;;;;;;;3.92;2.25;;;;;;;12.71;67.27;99447.69;5054165;28;20527;-84
2021/10/25 11:55:25;;;;;;;2.70;2.00;;;;;;;12.70;66.98;99445.16;5050672;28;20045;-84
2021/10/25 11:57:55;;;;;;;2.50;1.98;;;;;;;12.75;65.60;99437.25;5033633;28;20053;-84
2021/10/25 12:00:23;;;;;;;3.72;2.38;;;;;;;12.73;64.24;99426.53;5034287;28;20041;-84
2021/10/25 12:02:50;;;;;;;5.72;2.20;;;;;;;12.81;65.15;99420.13;5030419;28;20442;-86
2021/10/25 12:05:23;;;;;;;3.28;1.90;;;;;;;12.88;65.08;99421.03;5033917;28;20073;-85
2021/10/25 12:07:52;;;;;;;5.95;2.25;;;;;;;12.99;66.61;99418.81;5033609;28;20471;-84
2021/10/25 12:10:21;;;;;;;5.53;1.90;;;;;;;12.97;66.06;99410.00;5013689;28;20073;-84
2021/10/25 12:12:51;;;;;;;2.87;1.80;;;;;;;13.12;63.53;99416.22;5030870;28;20468;-84
2021/10/25 12:15:23;;;;;;;4.40;2.22;;;;;;;13.15;63.94;99410.38;5032672;28;20469;-84
2021/10/25 12:17:56;;;;;;;2.58;1.75;;;;;;;13.24;60.85;99406.47;5019718;28;20053;-84
2021/10/25 12:20:39;;;;;;;2.85;1.90;;;;;;;13.18;60.71;99390.88;5033597;28;20103;-82
2021/10/25 12:23:10;;;;;;;3.58;1.80;;;;;;;13.38;62.03;99401.16;5033603;28;20052;-82
2021/10/25 12:25:38;;;;;;;5.97;1.95;;;;;;;13.43;63.70;99391.34;5033580;28;20492;-82
2021/10/25 12:28:09;;;;;;;2.17;1.50;;;;;;;13.48;60.05;99393.47;5022829;28;20053;-83
2021/10/25 12:30:39;;;;;;;3.50;1.95;;;;;;;13.45;59.75;99363.81;5033457;28;20123;-82
2021/10/25 12:33:06;;;;;;;2.35;1.25;;;;;;;13.65;61.23;99390.44;5033684;28;20050;-83
2021/10/25 12:35:38;;;;;;;5.88;1.50;;;;;;;13.71;60.12;99382.28;5032468;28;20049;-83
2021/10/25 12:38:09;;;;;;;4.22;2.80;;;;;;;13.72;58.37;99383.97;5033107;28;20053;-82
2021/10/25 12:40:41;;;;;;;11.88;1.92;;;;;;;13.72;58.25;99377.69;5033231;28;20049;-82
2021/10/25 12:43:08;;;;;;;8.73;1.92;;;;;;;13.80;58.77;99389.28;5033193;28;20444;-81
2021/10/25 12:45:41;;;;;;;4.93;1.75;;;;;;;13.88;59.54;99376.50;5021009;28;20497;-81
2021/10/25 12:48:10;;;;;;;2.35;1.98;;;;;;;14.03;58.56;99376.38;5020481;28;20045;-82
2021/10/25 12:50:39;;;;;;;1.98;1.50;;;;;;;13.97;58.18;99369.81;5023582;28;20100;-82
2021/10/25 12:53:07;;;;;;;7.32;1.60;;;;;;;13.90;56.13;99368.97;5017223;28;20485;-82
2021/10/25 12:55:35;;;;;;;2.33;1.77;;;;;;;13.84;59.16;99375.22;5031594;28;20458;-82
2021/10/25 12:58:02;;;;;;;3.47;1.60;;;;;;;13.72;58.57;99370.31;5032197;28;20053;-82
2021/10/25 13:00:29;;;;;;;4.75;1.60;;;;;;;13.53;60.71;99373.75;5020525;28;20054;-82
2021/10/25 13:02:56;;;;;;;2.33;1.45;;;;;;;13.42;61.71;99358.75;5012227;28;20069;-81
2021/10/25 13:05:26;;;;;;;3.55;1.27;;;;;;;13.49;61.41;99369.72;5026944;28;20056;-82
2021/10/25 13:07:55;;;;;;;2.53;1.65;;;;;;;13.53;60.89;99360.94;5026124;28;20053;-82
2021/10/25 13:10:24;;;;;;;4.93;1.40;;;;;;;13.86;61.39;99357.56;5026683;28;20100;-82
2021/10/25 13:12:55;;;;;;;2.40;1.42;;;;;;;14.07;61.60;99347.59;5032106;28;20049;-82
2021/10/25 13:15:24;;;;;;;6.07;1.67;;;;;;;14.13;58.26;99344.03;5031742;28;20042;-82
2021/10/25 13:17:50;;;;;;;4.45;1.15;;;;;;;14.21;57.14;99345.75;5031113;28;20045;-82
2021/10/25 13:20:21;;;;;;;3.10;1.42;;;;;;;14.24;57.88;99335.25;5033705;28;20053;-82
2021/10/25 13:22:49;;;;;;;14.27;1.83;;;;;;;14.45;55.63;99341.63;5035815;28;20300;-82
2021/10/25 13:25:17;;;;;;;5.32;1.70;;;;;;;14.45;55.13;99333.41;5035168;28;20469;-82
2021/10/25 13:27:44;;;;;;;3.38;1.70;;;;;;;14.51;56.31;99336.19;5035282;28;20489;-82
2021/10/25 13:30:14;;;;;;;6.20;1.50;;;;;;;14.70;57.20;99344.66;5035659;28;20394;-82
2021/10/25 13:32:41;;;;;;;7.75;1.52;;;;;;;14.76;55.56;99341.09;5035646;28;20096;-82
2021/10/25 13:35:09;;;;;;;8.07;2.38;;;;;;;14.76;55.42;99334.81;5034794;28;20156;-82
2021/10/25 13:37:36;;;;;;;4.78;2.03;;;;;;;14.75;57.23;99333.94;5034808;28;20058;-82
2021/10/25 13:40:06;;;;;;;6.05;1.67;;;;;;;14.83;56.97;99341.13;5035135;28;20095;-82
2021/10/25 13:42:34;;;;;;;2.35;1.38;;;;;;;14.75;58.15;99341.31;5035077;28;20107;-82
2021/10/25 13:45:01;;;;;;;3.53;1.42;;;;;;;14.63;57.33;99341.06;5035206;28;20053;-82
2021/10/25 13:47:27;;;;;;;3.25;1.40;;;;;;;14.61;56.12;99324.03;5035078;28;20050;-82
2021/10/25 13:49:55;;;;;;;6.45;1.40;;;;;;;14.51;55.73;99332.59;5035495;28;20049;-82